Time;durP1;ratioP1;P1;durP2;ratioP2;P2;SDS_P1;SDS_P2;PMS_P1;PMS_P2;Temp;Humidity;BMP_temperature;BMP_pressure;BME280_temperature;BME280_humidity;BME280_pressure;Samples;Min_cycle;Max_cycle;Signal;HPM_P1;HPM_P2
2022/05/11 00:01:19;;;;;;;14.60;8.33;;;;;;;;;;5070109;28;20249;-82
2022/05/11 00:03:46;;;;;;;11.10;8.00;;;;;;;;;;5063957;28;20216;-82
2022/05/11 00:06:13;;;;;;;11.67;8.10;;;;;;;;;;5070348;28;20698;-82
2022/05/11 00:08:43;;;;;;;14.90;8.20;;;;;;;;;;5066379;28;20224;-82
2022/05/11 00:11:13;;;;;;;12.87;8.57;;;;;;;;;;5073998;28;20594;-82
2022/05/11 00:13:40;;;;;;;10.70;8.03;;;;;;;;;;5072696;28;20202;-82
2022/05/11 00:16:10;;;;;;;13.33;8.30;;;;;;;;;;5066882;28;20238;-82
2022/05/11 00:18:37;;;;;;;11.17;8.07;;;;;;;;;;5064549;28;20205;-82
2022/05/11 00:21:05;;;;;;;13.17;8.30;;;;;;;;;;5067074;28;20264;-82
2022/05/11 00:23:32;;;;;;;12.50;7.97;;;;;;;;;;5065310;28;20203;-82
2022/05/11 00:25:59;;;;;;;10.83;8.27;;;;;;;;;;5066250;28;20230;-83
2022/05/11 00:28:26;;;;;;;12.27;9.00;;;;;;;;;;5067434;28;20222;-81
2022/05/11 00:30:54;;;;;;;15.30;8.60;;;;;;;;;;5068727;28;20741;-82
2022/05/11 00:33:26;;;;;;;13.80;8.70;;;;;;;;;;5065191;28;20670;-81
2022/05/11 00:35:56;;;;;;;14.40;8.63;;;;;;;;;;5062762;28;20244;-84
2022/05/11 00:38:24;;;;;;;12.13;8.60;;;;;;;;;;5063121;28;20209;-84
2022/05/11 00:40:52;;;;;;;13.63;9.17;;;;;;;;;;5063497;28;20199;-83
2022/05/11 00:43:28;;;;;;;11.10;8.40;;;;;;;;;;5067217;28;20289;-81
2022/05/11 00:45:57;;;;;;;15.43;8.60;;;;;;;;;;5076869;28;20668;-82
2022/05/11 00:54:15;;;;;;;12.33;8.17;;;;;;;;;;5004544;28;20208;-80
2022/05/11 00:56:49;;;;;;;13.23;8.50;;;;;;;;;;5040606;28;20746;-82
2022/05/11 00:59:17;;;;;;;14.70;9.27;;;;;;;;;;5068142;28;20214;-81
2022/05/11 01:01:45;;;;;;;12.40;9.20;;;;;;;;;;5065702;28;20829;-82
2022/05/11 01:04:15;;;;;;;15.00;8.43;;;;;;;;;;5065782;28;20214;-83
2022/05/11 01:06:43;;;;;;;13.43;8.90;;;;;;;;;;5067526;28;20309;-82
2022/05/11 01:09:11;;;;;;;14.03;9.07;;;;;;;;;;5068555;28;20233;-83
2022/05/11 01:11:39;;;;;;;12.33;7.93;;;;;;;;;;5065952;28;20663;-83
2022/05/11 01:14:07;;;;;;;14.10;8.50;;;;;;;;;;5065154;28;20206;-82
2022/05/11 01:16:35;;;;;;;14.80;9.20;;;;;;;;;;5066055;28;20226;-81
2022/05/11 01:19:02;;;;;;;13.20;9.53;;;;;;;;;;5063194;28;20203;-82
2022/05/11 01:21:36;;;;;;;15.47;8.80;;;;;;;;;;5065659;28;20229;-80
2022/05/11 01:24:09;;;;;;;13.53;8.83;;;;;;;;;;5063043;28;20210;-82
2022/05/11 01:26:38;;;;;;;13.13;8.53;;;;;;;;;;5063482;28;20227;-82
2022/05/11 01:29:07;;;;;;;17.43;8.80;;;;;;;;;;5063136;28;20242;-82
2022/05/11 01:31:34;;;;;;;11.57;8.33;;;;;;;;;;5061582;28;20701;-80
2022/05/11 01:34:03;;;;;;;14.53;7.80;;;;;;;;;;5063384;28;20729;-82
2022/05/11 01:36:31;;;;;;;14.40;8.60;;;;;;;;;;5061373;28;20298;-80
2022/05/11 01:38:59;;;;;;;14.20;8.53;;;;;;;;;;5062337;28;20521;-81
2022/05/11 01:41:31;;;;;;;11.93;8.50;;;;;;;;;;5064690;28;20202;-82
2022/05/11 01:44:00;;;;;;;13.43;9.10;;;;;;;;;;5063366;28;20627;-82
2022/05/11 01:46:27;;;;;;;16.50;9.70;;;;;;;;;;5065001;28;20305;-81
2022/05/11 01:48:55;;;;;;;12.87;8.90;;;;;;;;;;5063302;28;20648;-82
2022/05/11 01:51:24;;;;;;;13.07;9.20;;;;;;;;;;5062772;28;20245;-83
2022/05/11 01:53:51;;;;;;;15.83;9.20;;;;;;;;;;5064197;28;20289;-81
2022/05/11 01:56:20;;;;;;;13.07;9.07;;;;;;;;;;5063337;28;20654;-82
2022/05/11 01:58:47;;;;;;;15.30;9.23;;;;;;;;;;5057827;28;20207;-80
2022/05/11 02:01:16;;;;;;;15.40;8.90;;;;;;;;;;5064957;28;20202;-81
2022/05/11 02:03:44;;;;;;;16.10;9.83;;;;;;;;;;5063271;28;20198;-81
2022/05/11 02:09:04;;;;;;;13.17;9.30;;;;;;;;;;5063624;28;20387;-80
2022/05/11 02:11:31;;;;;;;13.30;8.53;;;;;;;;;;5069901;28;20267;-82
2022/05/11 02:13:59;;;;;;;14.60;9.53;;;;;;;;;;5075925;28;20207;-82
2022/05/11 02:16:27;;;;;;;13.43;9.10;;;;;;;;;;5071423;28;20233;-83
2022/05/11 02:18:58;;;;;;;14.80;9.23;;;;;;;;;;5061170;28;20294;-82
2022/05/11 02:21:25;;;;;;;12.23;9.13;;;;;;;;;;5059028;28;20199;-82
2022/05/11 02:23:53;;;;;;;14.33;8.87;;;;;;;;;;5062486;28;20198;-82
2022/05/11 02:26:22;;;;;;;18.37;9.93;;;;;;;;;;5065947;28;20241;-83
2022/05/11 02:29:19;;;;;;;12.47;8.87;;;;;;;;;;5081030;28;20258;-84
2022/05/11 02:31:50;;;;;;;12.83;9.17;;;;;;;;;;5063135;28;20266;-81
2022/05/11 02:37:08;;;;;;;15.03;9.60;;;;;;;;;;5060268;28;20717;-82
2022/05/11 02:39:38;;;;;;;11.67;8.47;;;;;;;;;;5058797;28;20249;-81
2022/05/11 02:42:05;;;;;;;14.07;8.93;;;;;;;;;;5058721;28;20227;-79
2022/05/11 02:44:33;;;;;;;14.27;9.47;;;;;;;;;;5065212;28;20202;-80
2022/05/11 02:47:03;;;;;;;15.53;9.53;;;;;;;;;;5058928;28;20706;-81
2022/05/11 02:49:31;;;;;;;15.83;9.30;;;;;;;;;;5062649;28;20462;-82
2022/05/11 02:51:58;;;;;;;12.90;9.33;;;;;;;;;;5062347;28;20202;-81
2022/05/11 02:54:29;;;;;;;12.63;8.90;;;;;;;;;;5061155;28;20206;-80
2022/05/11 02:56:57;;;;;;;12.50;9.20;;;;;;;;;;5087840;22;20314;-80
2022/05/11 03:02:52;;;;;;;12.80;9.53;;;;;;;;;;5003944;28;20771;-82
2022/05/11 03:05:20;;;;;;;14.40;9.37;;;;;;;;;;5063895;28;20238;-80
2022/05/11 03:07:48;;;;;;;13.67;9.17;;;;;;;;;;5046970;28;20290;-81
2022/05/11 03:10:15;;;;;;;13.57;9.40;;;;;;;;;;5049384;28;20230;-81
2022/05/11 03:12:44;;;;;;;14.47;9.43;;;;;;;;;;5047212;28;20199;-81
2022/05/11 03:15:15;;;;;;;14.73;9.50;;;;;;;;;;5048141;28;20238;-81
2022/05/11 03:17:43;;;;;;;13.87;9.73;;;;;;;;;;5048385;28;20266;-81
2022/05/11 03:20:15;;;;;;;14.20;9.40;;;;;;;;;;5048147;28;20203;-81
2022/05/11 03:22:44;;;;;;;18.20;9.90;;;;;;;;;;5046929;28;20203;-81
2022/05/11 03:25:12;;;;;;;15.40;8.97;;;;;;;;;;5046052;28;20213;-81
2022/05/11 03:27:48;;;;;;;16.93;9.93;;;;;;;;;;5047663;28;20222;-81
2022/05/11 03:30:20;;;;;;;13.17;9.30;;;;;;;;;;5048592;28;20280;-81
2022/05/11 03:35:32;;;;;;;11.77;8.47;;;;;;;;;;5045401;28;20736;-81
2022/05/11 03:38:01;;;;;;;17.73;10.83;;;;;;;;;;5048172;28;20206;-81
2022/05/11 03:40:29;;;;;;;14.10;9.80;;;;;;;;;;5048881;28;20230;-81
2022/05/11 03:42:59;;;;;;;17.37;9.80;;;;;;;;;;5046456;28;20257;-82
2022/05/11 03:45:29;;;;;;;16.83;9.57;;;;;;;;;;5048744;28;20206;-81
2022/05/11 03:48:00;;;;;;;13.27;9.00;;;;;;;;;;5046537;28;20570;-82
2022/05/11 03:50:28;;;;;;;16.53;9.30;;;;;;;;;;5048537;28;20232;-82
2022/05/11 03:55:49;;;;;;;14.20;9.10;;;;;;;;;;5047141;28;20231;-81
2022/05/11 03:58:18;;;;;;;15.40;9.60;;;;;;;;;;5049093;28;20233;-81
2022/05/11 04:00:46;;;;;;;15.37;10.07;;;;;;;;;;5048056;28;20206;-82
2022/05/11 04:03:13;;;;;;;14.10;9.33;;;;;;;;;;5045618;28;20298;-81
2022/05/11 04:05:45;;;;;;;19.30;9.20;;;;;;;;;;5047266;28;20218;-82
2022/05/11 04:08:21;;;;;;;15.93;9.87;;;;;;;;;;5047988;28;20268;-82
2022/05/11 04:10:50;;;;;;;12.70;8.77;;;;;;;;;;5048128;28;20234;-82
2022/05/11 04:13:20;;;;;;;15.33;9.90;;;;;;;;;;5049489;28;20579;-82
2022/05/11 04:15:52;;;;;;;12.90;9.07;;;;;;;;;;5050523;28;20219;-82
2022/05/11 04:18:28;;;;;;;12.60;8.87;;;;;;;;;;5050293;28;20237;-82
2022/05/11 04:20:57;;;;;;;16.80;9.53;;;;;;;;;;5044807;28;20705;-82
2022/05/11 04:26:11;;;;;;;13.80;8.47;;;;;;;;;;5050677;28;20226;-82
2022/05/11 04:28:43;;;;;;;10.33;7.70;;;;;;;;;;5043878;28;20729;-82
2022/05/11 04:31:15;;;;;;;9.97;7.27;;;;;;;;;;5050559;28;20234;-82
2022/05/11 04:33:43;;;;;;;14.60;7.60;;;;;;;;;;5049935;28;20210;-82
2022/05/11 04:36:10;;;;;;;14.00;7.83;;;;;;;;;;5047818;28;20284;-82
2022/05/11 04:38:39;;;;;;;12.67;7.40;;;;;;;;;;5048076;28;20206;-81
2022/05/11 04:41:11;;;;;;;11.03;7.73;;;;;;;;;;5053915;28;20210;-82
2022/05/11 04:43:38;;;;;;;10.17;7.23;;;;;;;;;;5050256;28;20199;-82
2022/05/11 04:46:05;;;;;;;10.63;7.20;;;;;;;;;;5062708;28;20287;-82
2022/05/11 04:48:36;;;;;;;10.83;7.40;;;;;;;;;;5070519;28;20271;-82
2022/05/11 04:51:05;;;;;;;10.97;7.47;;;;;;;;;;5067667;28;20233;-82
2022/05/11 04:53:32;;;;;;;11.60;6.70;;;;;;;;;;5070857;28;20238;-82
2022/05/11 04:56:05;;;;;;;13.60;7.20;;;;;;;;;;5066833;28;20294;-82
2022/05/11 04:58:33;;;;;;;8.47;6.80;;;;;;;;;;5051599;28;20697;-82
2022/05/11 05:01:02;;;;;;;12.17;6.63;;;;;;;;;;5049597;28;20213;-82
2022/05/11 05:03:29;;;;;;;10.10;6.83;;;;;;;;;;5050655;28;20261;-82
2022/05/11 05:05:57;;;;;;;14.73;7.97;;;;;;;;;;5029036;28;20230;-82
2022/05/11 05:08:25;;;;;;;14.23;7.00;;;;;;;;;;5047375;28;20206;-82
2022/05/11 05:10:54;;;;;;;10.10;7.13;;;;;;;;;;5047277;28;20226;-82
2022/05/11 05:13:31;;;;;;;11.43;7.50;;;;;;;;;;5057290;28;20685;-82
2022/05/11 05:16:00;;;;;;;9.67;6.83;;;;;;;;;;5046288;28;20313;-82
2022/05/11 05:18:28;;;;;;;11.20;7.40;;;;;;;;;;5051595;28;20199;-82
2022/05/11 05:20:58;;;;;;;15.17;7.10;;;;;;;;;;5045284;28;20261;-82
2022/05/11 05:23:28;;;;;;;12.83;7.10;;;;;;;;;;5041840;28;20222;-82
2022/05/11 05:25:55;;;;;;;10.77;6.50;;;;;;;;;;5039738;28;20235;-82
2022/05/11 05:31:14;;;;;;;9.93;6.73;;;;;;;;;;5044689;28;20245;-82
2022/05/11 05:33:44;;;;;;;11.53;7.00;;;;;;;;;;5048307;28;20202;-83
2022/05/11 05:36:17;;;;;;;10.17;6.50;;;;;;;;;;5045086;28;20299;-83
2022/05/11 05:38:45;;;;;;;12.07;6.67;;;;;;;;;;5047326;28;20486;-83
2022/05/11 05:41:25;;;;;;;13.23;7.07;;;;;;;;;;5045319;28;20211;-83
2022/05/11 05:43:54;;;;;;;8.57;6.30;;;;;;;;;;5044742;28;20610;-83
2022/05/11 05:46:29;;;;;;;9.57;6.60;;;;;;;;;;5045880;28;20235;-82
2022/05/11 05:48:56;;;;;;;9.10;6.43;;;;;;;;;;5040494;28;20248;-82
2022/05/11 05:51:26;;;;;;;7.60;6.07;;;;;;;;;;5045394;28;20211;-82
2022/05/11 05:53:55;;;;;;;15.57;6.13;;;;;;;;;;5047053;28;20299;-83
2022/05/11 05:56:23;;;;;;;12.40;6.33;;;;;;;;;;5047567;28;20247;-82
2022/05/11 05:58:58;;;;;;;9.47;5.97;;;;;;;;;;5045543;28;20248;-82
2022/05/11 06:01:35;;;;;;;10.43;6.17;;;;;;;;;;5049372;28;20284;-82
2022/05/11 06:04:05;;;;;;;11.33;6.23;;;;;;;;;;5045880;28;20241;-82
2022/05/11 06:06:34;;;;;;;8.93;5.73;;;;;;;;;;5049057;28;20248;-82
2022/05/11 06:09:01;;;;;;;9.20;5.70;;;;;;;;;;5046426;28;20211;-82
2022/05/11 06:11:30;;;;;;;9.53;5.33;;;;;;;;;;5047761;28;20235;-82
2022/05/11 06:13:59;;;;;;;10.00;6.20;;;;;;;;;;5047665;28;20206;-82
2022/05/11 06:16:26;;;;;;;7.70;5.40;;;;;;;;;;5048790;28;20218;-82
2022/05/11 06:18:56;;;;;;;11.10;5.90;;;;;;;;;;5046988;28;20222;-82
2022/05/11 06:21:24;;;;;;;8.60;5.77;;;;;;;;;;5049783;28;20222;-82
2022/05/11 06:23:51;;;;;;;10.17;5.70;;;;;;;;;;5049531;28;20199;-82
2022/05/11 06:26:19;;;;;;;10.23;5.63;;;;;;;;;;5032293;28;20226;-82
2022/05/11 06:28:47;;;;;;;11.43;5.07;;;;;;;;;;5051592;28;20200;-82
2022/05/11 06:31:15;;;;;;;10.53;5.47;;;;;;;;;;5052076;28;20229;-82
2022/05/11 06:33:45;;;;;;;11.43;5.60;;;;;;;;;;5045719;28;20199;-82
2022/05/11 06:36:25;;;;;;;9.27;5.57;;;;;;;;;;5045916;28;20311;-82
2022/05/11 06:38:53;;;;;;;8.07;5.63;;;;;;;;;;5036728;28;20576;-82
2022/05/11 06:41:21;;;;;;;9.63;5.60;;;;;;;;;;5044196;28;20191;-83
2022/05/11 06:43:54;;;;;;;7.90;5.50;;;;;;;;;;5042095;28;20251;-83
2022/05/11 06:46:23;;;;;;;8.20;5.17;;;;;;;;;;5023631;28;20223;-83
2022/05/11 06:48:51;;;;;;;11.37;5.90;;;;;;;;;;5039681;28;20206;-83
2022/05/11 06:51:20;;;;;;;6.30;4.93;;;;;;;;;;5048765;28;20698;-83
2022/05/11 06:59:27;;;;;;;7.90;5.00;;;;;;;;;;5044714;28;20316;-83
2022/05/11 07:01:57;;;;;;;9.53;5.40;;;;;;;;;;5045091;28;20220;-83
2022/05/11 07:04:24;;;;;;;12.30;5.40;;;;;;;;;;5043686;28;20269;-82
2022/05/11 07:06:53;;;;;;;10.70;5.30;;;;;;;;;;5045871;28;20715;-83
2022/05/11 07:09:21;;;;;;;10.87;5.13;;;;;;;;;;5049181;28;20636;-83
2022/05/11 07:14:33;;;;;;;9.38;4.95;;;;;;;;;;5050068;28;20265;-81
2022/05/11 07:17:01;;;;;;;10.68;4.57;;;;;;;;;;5049334;28;20242;-81
2022/05/11 07:19:28;;;;;;;10.63;4.57;;;;;;;;;;5048189;28;20207;-83
2022/05/11 07:22:13;;;;;;;11.57;4.30;;;;;;;;;;5050190;28;20463;-84
2022/05/11 07:25:17;;;;;;;5.78;3.70;;;;;;;;;;5050744;28;20205;-85
2022/05/11 07:27:46;;;;;;;13.00;3.75;;;;;;;;;;5035539;28;20409;-81
2022/05/11 07:30:15;;;;;;;8.05;3.28;;;;;;;;;;5049287;28;20222;-81
2022/05/11 07:32:43;;;;;;;4.65;2.75;;;;;;;;;;5048957;28;20241;-82
2022/05/11 07:35:13;;;;;;;3.15;2.60;;;;;;;;;;5052027;28;20206;-81
2022/05/11 07:37:46;;;;;;;7.22;2.75;;;;;;;;;;5054177;28;20257;-81
2022/05/11 07:40:13;;;;;;;6.10;2.90;;;;;;;;;;5051860;28;20211;-81
2022/05/11 07:42:41;;;;;;;5.57;2.90;;;;;;;;;;5052482;28;20632;-82
2022/05/11 07:45:10;;;;;;;7.30;2.90;;;;;;;;;;5052218;28;20246;-82
2022/05/11 07:47:38;;;;;;;6.37;2.87;;;;;;;;;;5059085;28;20258;-82
2022/05/11 07:50:05;;;;;;;5.67;2.70;;;;;;;;;;5055109;28;20290;-82
2022/05/11 07:52:33;;;;;;;4.03;2.70;;;;;;;;;;5051408;28;20795;-82
2022/05/11 07:55:01;;;;;;;4.20;2.80;;;;;;;;;;5054372;28;20204;-82
2022/05/11 08:00:14;;;;;;;3.73;2.80;;;;;;;;;;5053496;28;20238;-82
2022/05/11 08:02:41;;;;;;;5.83;2.83;;;;;;;;;;5050301;28;20207;-83
2022/05/11 08:05:10;;;;;;;4.57;2.80;;;;;;;;;;5045758;28;21522;-83
2022/05/11 08:07:39;;;;;;;3.30;2.60;;;;;;;;;;5045861;28;20315;-83
2022/05/11 08:10:09;;;;;;;3.10;2.70;;;;;;;;;;5049289;28;20730;-83
2022/05/11 08:12:36;;;;;;;5.03;3.00;;;;;;;;;;5051961;28;20252;-83
2022/05/11 08:15:03;;;;;;;5.57;2.50;;;;;;;;;;5050203;28;20217;-83
2022/05/11 08:17:34;;;;;;;4.90;2.77;;;;;;;;;;5054752;28;20223;-83
2022/05/11 08:20:01;;;;;;;7.83;2.50;;;;;;;;;;5055510;28;20271;-82
2022/05/11 08:22:29;;;;;;;6.83;2.63;;;;;;;;;;5058556;28;20227;-84
2022/05/11 08:24:57;;;;;;;2.97;2.20;;;;;;;;;;5059555;28;20209;-84
2022/05/11 08:27:28;;;;;;;6.25;2.80;;;;;;;;;;5057051;28;20303;-84
2022/05/11 08:35:27;;;;;;;5.70;2.70;;;;;;;;;;5052977;28;20195;-83
2022/05/11 08:37:55;;;;;;;9.98;2.72;;;;;;;;;;5053852;28;20218;-83
2022/05/11 08:40:29;;;;;;;9.27;2.95;;;;;;;;;;5057415;28;20258;-83
2022/05/11 08:43:02;;;;;;;3.97;2.90;;;;;;;;;;5054994;28;20285;-83
2022/05/11 08:45:33;;;;;;;6.73;2.80;;;;;;;;;;5050864;28;20613;-83
2022/05/11 08:48:01;;;;;;;5.80;2.80;;;;;;;;;;5051257;28;20206;-83
2022/05/11 08:50:29;;;;;;;7.85;3.10;;;;;;;;;;5053366;28;20207;-82
2022/05/11 08:53:00;;;;;;;7.73;3.13;;;;;;;;;;5052875;28;20638;-82
2022/05/11 08:55:32;;;;;;;9.37;3.07;;;;;;;;;;5052057;28;20211;-82
2022/05/11 08:58:04;;;;;;;5.27;2.90;;;;;;;;;;5049798;28;20213;-82
2022/05/11 09:00:31;;;;;;;5.77;2.90;;;;;;;;;;5053339;28;20643;-82
2022/05/11 09:03:07;;;;;;;7.87;3.10;;;;;;;;;;5049712;28;20302;-82
2022/05/11 09:05:39;;;;;;;4.67;3.33;;;;;;;;;;5051919;28;20198;-82
2022/05/11 09:08:09;;;;;;;6.33;3.07;;;;;;;;;;5049179;28;20203;-82
2022/05/11 09:10:40;;;;;;;7.17;2.70;;;;;;;;;;5054225;28;20207;-83
2022/05/11 09:13:11;;;;;;;6.33;2.93;;;;;;;;;;5048293;28;20698;-84
2022/05/11 09:15:49;;;;;;;5.37;3.10;;;;;;;;;;5050309;28;20363;-83
2022/05/11 09:18:16;;;;;;;4.03;3.10;;;;;;;;;;5048411;28;20203;-83
2022/05/11 09:20:46;;;;;;;8.73;3.10;;;;;;;;;;5054246;28;20209;-83
2022/05/11 09:23:13;;;;;;;7.93;3.00;;;;;;;;;;5053909;28;20282;-83
2022/05/11 09:25:55;;;;;;;6.40;2.90;;;;;;;;;;5050459;28;20276;-82
2022/05/11 09:28:26;;;;;;;7.53;2.80;;;;;;;;;;5047922;28;20294;-82
2022/05/11 09:30:58;;;;;;;5.70;2.90;;;;;;;;;;5041319;28;20295;-83
2022/05/11 09:33:26;;;;;;;7.43;2.90;;;;;;;;;;5045989;28;20249;-82
2022/05/11 09:35:53;;;;;;;9.70;3.00;;;;;;;;;;5043680;28;20232;-82
2022/05/11 09:38:33;;;;;;;6.03;2.57;;;;;;;;;;5046990;28;20242;-83
2022/05/11 09:41:02;;;;;;;5.43;3.07;;;;;;;;;;5046618;28;20281;-83
2022/05/11 09:43:36;;;;;;;6.13;2.87;;;;;;;;;;5051302;28;20207;-82
2022/05/11 09:46:18;;;;;;;6.53;2.53;;;;;;;;;;5051083;28;20698;-83
2022/05/11 09:48:55;;;;;;;6.57;2.97;;;;;;;;;;5049103;28;20223;-83
2022/05/11 09:51:23;;;;;;;10.13;3.03;;;;;;;;;;5054160;28;20225;-82
2022/05/11 09:53:52;;;;;;;9.33;2.97;;;;;;;;;;5050216;28;20261;-83
2022/05/11 09:56:23;;;;;;;4.43;2.90;;;;;;;;;;5044366;28;20234;-83
2022/05/11 09:58:52;;;;;;;5.87;2.97;;;;;;;;;;5053388;28;20199;-83
2022/05/11 10:01:24;;;;;;;5.10;3.00;;;;;;;;;;5053215;28;20209;-83
2022/05/11 10:03:53;;;;;;;7.87;2.60;;;;;;;;;;5052659;28;20238;-82
2022/05/11 10:06:21;;;;;;;6.10;2.60;;;;;;;;;;5053524;28;20298;-83
2022/05/11 10:08:49;;;;;;;4.83;2.53;;;;;;;;;;5050202;28;20303;-82
2022/05/11 10:11:18;;;;;;;6.50;2.90;;;;;;;;;;5051417;28;20233;-83
2022/05/11 10:13:49;;;;;;;8.10;2.70;;;;;;;;;;5050616;28;20214;-82
2022/05/11 10:22:02;;;;;;;9.10;3.40;;;;;;;;;;5053055;28;20282;-83
2022/05/11 10:24:41;;;;;;;5.00;2.80;;;;;;;;;;5051553;28;20704;-83
2022/05/11 10:27:11;;;;;;;6.87;2.40;;;;;;;;;;5054017;28;20258;-83
2022/05/11 10:29:46;;;;;;;6.77;2.60;;;;;;;;;;5045672;28;20226;-83
2022/05/11 10:32:23;;;;;;;7.90;2.83;;;;;;;;;;5049016;28;20586;-82
2022/05/11 10:34:55;;;;;;;4.47;2.40;;;;;;;;;;5048106;28;20222;-83
2022/05/11 10:37:26;;;;;;;6.67;2.80;;;;;;;;;;5047463;28;20229;-83
2022/05/11 10:40:10;;;;;;;4.63;2.60;;;;;;;;;;5046409;28;20297;-83
2022/05/11 10:42:42;;;;;;;6.63;2.87;;;;;;;;;;5045207;28;20199;-83
2022/05/11 10:45:13;;;;;;;4.30;2.30;;;;;;;;;;5049174;28;20285;-83
2022/05/11 10:47:48;;;;;;;4.00;2.63;;;;;;;;;;5049884;28;20242;-83
2022/05/11 10:50:21;;;;;;;6.57;2.70;;;;;;;;;;5050147;28;20199;-83
2022/05/11 10:52:56;;;;;;;8.40;2.60;;;;;;;;;;5048765;28;20219;-83
2022/05/11 10:55:26;;;;;;;3.27;2.43;;;;;;;;;;5047849;28;20205;-84
2022/05/11 10:57:59;;;;;;;3.30;2.27;;;;;;;;;;5048451;28;20647;-81
2022/05/11 11:00:27;;;;;;;7.00;2.43;;;;;;;;;;5050018;28;20187;-81
2022/05/11 11:03:12;;;;;;;6.97;2.90;;;;;;;;;;5048540;28;20213;-81
2022/05/11 11:07:11;;;;;;;7.23;2.83;;;;;;;;;;5048120;28;20207;-81
2022/05/11 11:08:42;;;;;;;8.63;3.23;;;;;;;;;;5048097;28;20207;-81
2022/05/11 11:11:13;;;;;;;6.17;2.70;;;;;;;;;;5049365;28;20211;-81
2022/05/11 11:13:42;;;;;;;5.30;2.53;;;;;;;;;;5043692;28;20301;-82
2022/05/11 11:16:11;;;;;;;9.27;2.70;;;;;;;;;;5040473;28;20244;-81
2022/05/11 11:18:42;;;;;;;9.27;3.03;;;;;;;;;;5044160;28;20203;-84
2022/05/11 11:21:13;;;;;;;9.20;3.00;;;;;;;;;;5042331;28;20286;-83
2022/05/11 11:23:45;;;;;;;6.83;2.90;;;;;;;;;;5042227;28;20203;-84
2022/05/11 11:26:16;;;;;;;5.37;2.70;;;;;;;;;;5051102;28;20265;-84
2022/05/11 11:29:02;;;;;;;9.60;3.10;;;;;;;;;;5042874;28;20227;-84
2022/05/11 11:31:29;;;;;;;5.00;2.53;;;;;;;;;;5045433;28;20736;-84
2022/05/11 11:34:13;;;;;;;7.47;2.83;;;;;;;;;;5044720;28;20304;-84
2022/05/11 11:36:41;;;;;;;5.80;2.90;;;;;;;;;;5044277;28;20694;-84
2022/05/11 11:39:09;;;;;;;6.97;2.83;;;;;;;;;;5046633;28;20671;-83
2022/05/11 11:41:52;;;;;;;5.83;2.80;;;;;;;;;;5046100;28;20214;-84
2022/05/11 11:50:36;;;;;;;4.83;2.73;;;;;;;;;;5040239;28;20206;-84
2022/05/11 11:53:11;;;;;;;5.90;2.93;;;;;;;;;;5045558;28;20231;-84
2022/05/11 11:55:38;;;;;;;12.37;4.57;;;;;;;;;;5050046;28;20261;-81
2022/05/11 11:58:18;;;;;;;18.63;6.80;;;;;;;;;;5051467;28;20211;-82
2022/05/11 12:00:59;;;;;;;21.83;5.53;;;;;;;;;;5047236;28;20290;-81
2022/05/11 12:03:28;;;;;;;12.47;4.33;;;;;;;;;;5048111;28;20206;-81
2022/05/11 12:15:01;;;;;;;13.20;3.37;;;;;;;;;;5048827;28;20736;-81
2022/05/11 12:17:10;;;;;;;4.77;2.60;;;;;;;;;;5044905;28;20221;-83
2022/05/11 12:19:38;;;;;;;4.30;2.83;;;;;;;;;;5043706;28;20655;-83
2022/05/11 12:22:13;;;;;;;9.97;3.23;;;;;;;;;;5046718;28;20209;-83
2022/05/11 12:24:43;;;;;;;12.10;3.43;;;;;;;;;;5043875;28;20666;-83
2022/05/11 12:27:13;;;;;;;11.70;3.30;;;;;;;;;;5043798;28;20745;-83
2022/05/11 12:29:58;;;;;;;7.10;3.00;;;;;;;;;;5044683;28;20318;-83
2022/05/11 12:32:29;;;;;;;9.13;2.70;;;;;;;;;;5050466;28;20273;-83
2022/05/11 12:35:06;;;;;;;8.87;3.30;;;;;;;;;;5051686;28;20202;-83
2022/05/11 12:37:37;;;;;;;7.17;2.90;;;;;;;;;;5045256;28;20301;-83
2022/05/11 12:40:06;;;;;;;8.83;3.00;;;;;;;;;;5049467;28;20473;-83
2022/05/11 12:42:56;;;;;;;6.60;3.00;;;;;;;;;;5044125;28;20215;-83
2022/05/11 12:45:25;;;;;;;3.87;2.40;;;;;;;;;;5049048;28;20203;-83
2022/05/11 12:47:59;;;;;;;3.50;2.60;;;;;;;;;;5051412;28;20745;-84
2022/05/11 12:50:29;;;;;;;6.63;2.90;;;;;;;;;;5051108;28;20199;-83
2022/05/11 12:53:04;;;;;;;6.70;2.77;;;;;;;;;;5047488;28;20259;-83
2022/05/11 12:55:34;;;;;;;6.23;2.40;;;;;;;;;;5048999;28;20194;-83
2022/05/11 12:58:01;;;;;;;5.00;2.53;;;;;;;;;;5046418;28;20260;-83
2022/05/11 13:00:30;;;;;;;7.30;2.40;;;;;;;;;;5051215;28;20217;-83
2022/05/11 13:02:57;;;;;;;8.37;2.70;;;;;;;;;;5052434;28;20290;-83
2022/05/11 13:05:25;;;;;;;8.50;2.53;;;;;;;;;;5052923;28;20563;-83
2022/05/11 13:07:56;;;;;;;8.70;2.67;;;;;;;;;;5050438;28;20679;-84
2022/05/11 13:10:35;;;;;;;12.13;2.70;;;;;;;;;;5050465;28;20311;-84
2022/05/11 13:13:06;;;;;;;5.90;2.60;;;;;;;;;;5050514;28;20226;-80
2022/05/11 13:15:39;;;;;;;8.43;2.80;;;;;;;;;;5049676;28;20602;-81
2022/05/11 13:18:12;;;;;;;5.00;2.70;;;;;;;;;;5047065;28;20203;-83
2022/05/11 13:20:48;;;;;;;7.43;2.53;;;;;;;;;;5054378;28;20206;-81
2022/05/11 13:23:28;;;;;;;6.63;2.57;;;;;;;;;;5078930;22;20195;-83
2022/05/11 13:26:00;;;;;;;8.60;3.07;;;;;;;;;;5049941;28;20261;-83
2022/05/11 13:28:29;;;;;;;6.90;2.90;;;;;;;;;;5052960;28;20768;-83
2022/05/11 13:30:57;;;;;;;5.07;2.97;;;;;;;;;;5052484;28;20244;-83
2022/05/11 13:33:30;;;;;;;6.80;2.80;;;;;;;;;;5057964;28;20868;-84
2022/05/11 13:36:18;;;;;;;9.67;2.47;;;;;;;;;;5047131;28;20564;-83
2022/05/11 13:38:52;;;;;;;5.83;2.30;;;;;;;;;;5056501;28;20213;-83
2022/05/11 13:41:23;;;;;;;7.70;2.23;;;;;;;;;;5053191;28;20235;-84
2022/05/11 13:43:53;;;;;;;6.90;2.60;;;;;;;;;;5049631;28;20223;-83
2022/05/11 13:46:31;;;;;;;6.60;2.63;;;;;;;;;;5052253;28;20203;-83
2022/05/11 13:49:13;;;;;;;14.47;2.57;;;;;;;;;;5046922;28;20245;-82
2022/05/11 13:51:42;;;;;;;7.47;2.70;;;;;;;;;;5050205;28;20282;-82
2022/05/11 13:54:23;;;;;;;6.53;2.80;;;;;;;;;;5053950;28;20223;-82
2022/05/11 13:57:02;;;;;;;6.77;2.53;;;;;;;;;;5047370;28;20210;-83
2022/05/11 13:59:30;;;;;;;9.87;2.60;;;;;;;;;;5049033;28;20195;-81
2022/05/11 14:01:59;;;;;;;11.03;2.53;;;;;;;;;;5055473;28;20226;-84
2022/05/11 14:04:27;;;;;;;4.77;2.30;;;;;;;;;;5051728;28;20226;-80
2022/05/11 14:06:56;;;;;;;5.00;2.40;;;;;;;;;;5051160;28;20274;-83
2022/05/11 14:09:23;;;;;;;11.07;2.83;;;;;;;;;;5051501;28;20231;-83
2022/05/11 14:11:50;;;;;;;6.40;2.47;;;;;;;;;;5059696;28;20256;-83
2022/05/11 14:14:19;;;;;;;6.47;2.70;;;;;;;;;;5057541;28;20227;-83
2022/05/11 14:16:46;;;;;;;14.33;2.80;;;;;;;;;;5049866;28;20232;-83
2022/05/11 14:19:15;;;;;;;6.93;2.83;;;;;;;;;;5058584;28;20504;-82
2022/05/11 14:21:44;;;;;;;12.40;2.50;;;;;;;;;;5059175;28;20209;-84
2022/05/11 14:24:11;;;;;;;8.73;2.70;;;;;;;;;;5055555;28;20247;-82
2022/05/11 14:26:39;;;;;;;11.70;2.67;;;;;;;;;;5058898;28;20199;-85
2022/05/11 14:29:06;;;;;;;8.77;2.77;;;;;;;;;;5062460;28;20204;-83
2022/05/11 14:31:35;;;;;;;6.90;2.10;;;;;;;;;;5062014;28;20218;-83
2022/05/11 14:34:02;;;;;;;8.43;2.87;;;;;;;;;;5062098;28;20878;-86
2022/05/11 14:36:29;;;;;;;8.10;2.47;;;;;;;;;;5059708;28;20199;-82
2022/05/11 14:38:57;;;;;;;7.63;2.37;;;;;;;;;;5058762;28;20958;-83
2022/05/11 14:41:24;;;;;;;12.23;2.40;;;;;;;;;;5052862;28;20272;-84
2022/05/11 14:43:51;;;;;;;13.07;2.70;;;;;;;;;;5048213;28;20514;-84
2022/05/11 14:46:20;;;;;;;5.90;2.27;;;;;;;;;;5047982;28;20223;-83
2022/05/11 14:48:49;;;;;;;7.10;2.00;;;;;;;;;;5045192;28;20235;-83
2022/05/11 14:51:17;;;;;;;6.97;2.23;;;;;;;;;;5051267;28;20230;-84
2022/05/11 14:53:45;;;;;;;8.47;2.50;;;;;;;;;;5048871;28;20551;-84
2022/05/11 14:56:13;;;;;;;8.27;2.00;;;;;;;;;;5048963;28;20203;-84
2022/05/11 15:04:13;;;;;;;9.63;2.10;;;;;;;;;;5049004;28;20226;-83
2022/05/11 15:06:42;;;;;;;8.00;2.13;;;;;;;;;;5046919;28;20254;-82
2022/05/11 15:09:10;;;;;;;7.50;2.00;;;;;;;;;;5050897;28;20214;-85
2022/05/11 15:14:27;;;;;;;6.03;2.10;;;;;;;;;;5043887;28;20284;-83
2022/05/11 15:16:54;;;;;;;13.47;2.20;;;;;;;;;;5046787;28;20250;-85
2022/05/11 15:19:23;;;;;;;7.73;2.30;;;;;;;;;;5046312;28;20297;-83
2022/05/11 15:21:50;;;;;;;8.10;2.23;;;;;;;;;;5048700;28;20257;-82
2022/05/11 15:24:17;;;;;;;5.90;2.27;;;;;;;;;;5048871;28;20230;-82
2022/05/11 15:26:45;;;;;;;3.90;2.10;;;;;;;;;;5045248;28;20293;-81
2022/05/11 15:29:12;;;;;;;4.33;2.30;;;;;;;;;;5046602;28;20209;-82
2022/05/11 15:31:39;;;;;;;7.53;2.13;;;;;;;;;;5046153;28;20203;-81
2022/05/11 15:34:07;;;;;;;4.00;1.80;;;;;;;;;;5046969;28;20266;-81
2022/05/11 15:36:36;;;;;;;3.47;1.90;;;;;;;;;;5043901;28;20249;-81
2022/05/11 15:39:03;;;;;;;10.83;2.00;;;;;;;;;;5042744;28;20237;-81
2022/05/11 15:41:31;;;;;;;10.40;2.00;;;;;;;;;;5048269;28;20199;-82
2022/05/11 15:43:58;;;;;;;10.27;1.83;;;;;;;;;;5046604;28;20258;-82
2022/05/11 15:46:25;;;;;;;7.67;2.20;;;;;;;;;;5049140;28;20230;-82
2022/05/11 15:48:52;;;;;;;12.20;2.20;;;;;;;;;;5047575;28;20203;-80
2022/05/11 15:51:20;;;;;;;6.17;2.00;;;;;;;;;;5048801;28;20214;-82
2022/05/11 15:53:49;;;;;;;4.93;1.70;;;;;;;;;;5048058;28;20227;-81
2022/05/11 15:56:16;;;;;;;7.87;1.57;;;;;;;;;;5045578;28;20199;-82
2022/05/11 15:58:43;;;;;;;5.00;1.80;;;;;;;;;;5041910;28;20207;-82
2022/05/11 16:01:14;;;;;;;4.30;1.77;;;;;;;;;;5043541;28;20845;-82
2022/05/11 16:03:42;;;;;;;5.90;2.07;;;;;;;;;;5045996;28;20310;-82
2022/05/11 16:06:09;;;;;;;9.83;1.90;;;;;;;;;;5043391;28;20214;-82